createdAt,value
2022-08-10T00:04:56.764Z,10.25
2022-08-10T00:09:59.869Z,10.10
2022-08-10T00:15:05.738Z,10.07
2022-08-10T00:20:10.447Z,10.40
2022-08-10T00:25:13.394Z,9.05
2022-08-10T00:30:17.895Z,7.93
2022-08-10T00:35:20.926Z,8.40
2022-08-10T00:40:37.153Z,8.85
2022-08-10T00:45:43.000Z,8.43
2022-08-10T00:50:49.497Z,8.65
2022-08-10T00:56:35.060Z,9.07
2022-08-10T01:02:07.729Z,8.95
2022-08-10T01:07:02.016Z,9.18
2022-08-10T01:12:40.393Z,8.77
2022-08-10T01:17:55.242Z,8.98
2022-08-10T01:23:32.681Z,9.82
2022-08-10T01:28:46.653Z,9.65
2022-08-10T01:33:58.239Z,8.95
2022-08-10T01:39:04.057Z,7.65
2022-08-10T01:44:11.494Z,8.40
2022-08-10T01:49:18.325Z,8.25
2022-08-10T01:54:24.985Z,9.35
2022-08-10T01:59:33.052Z,8.00
2022-08-10T02:04:40.223Z,8.07
2022-08-10T02:09:47.751Z,8.20
2022-08-10T02:14:53.625Z,8.40
2022-08-10T02:20:03.948Z,7.82
2022-08-10T02:25:09.317Z,8.82
2022-08-10T02:30:33.654Z,9.60
2022-08-10T02:35:55.306Z,10.80
2022-08-10T02:45:02.630Z,9.75
2022-08-10T02:46:39.813Z,10.68
2022-08-10T02:52:06.890Z,10.02
2022-08-10T02:57:16.852Z,10.10
2022-08-10T03:02:27.195Z,10.27
2022-08-10T03:07:42.926Z,10.05
2022-08-10T03:12:51.475Z,11.15
2022-08-10T03:17:58.656Z,10.75
2022-08-10T03:23:05.860Z,10.23
2022-08-10T03:28:10.019Z,10.75
2022-08-10T03:33:16.247Z,10.85
2022-08-10T03:38:20.733Z,10.63
2022-08-10T03:43:26.137Z,11.13
2022-08-10T03:48:45.074Z,11.05
2022-08-10T03:54:03.518Z,9.55
2022-08-10T03:59:12.441Z,10.15
2022-08-10T04:04:20.867Z,12.70
2022-08-10T04:09:53.503Z,9.90
2022-08-10T04:14:53.846Z,9.45
2022-08-10T04:19:59.792Z,10.10
2022-08-10T04:25:06.934Z,10.35
2022-08-10T04:30:10.921Z,10.23
2022-08-10T04:35:16.077Z,9.77
2022-08-10T04:40:29.255Z,11.38
2022-08-10T04:45:49.751Z,10.52
2022-08-10T04:50:55.667Z,11.60
2022-08-10T04:56:04.501Z,9.40
2022-08-10T05:01:07.650Z,9.13
2022-08-10T05:06:10.949Z,9.30
2022-08-10T05:11:24.029Z,9.90
2022-08-10T05:16:32.296Z,9.45
2022-08-10T05:22:03.807Z,9.70
2022-08-10T05:27:09.692Z,9.88
2022-08-10T05:32:14.074Z,8.82
2022-08-10T05:38:09.004Z,8.40
2022-08-10T05:42:42.798Z,9.15
2022-08-10T05:48:57.175Z,8.15
2022-08-10T05:53:23.155Z,7.25
2022-08-10T05:58:33.943Z,7.45
2022-08-10T06:03:43.861Z,7.45
2022-08-10T06:08:48.285Z,6.65
2022-08-10T06:14:16.692Z,6.22
2022-08-10T06:19:22.996Z,5.93
2022-08-10T06:24:29.224Z,4.95
2022-08-10T06:29:37.893Z,5.28
2022-08-10T06:34:45.251Z,4.72
2022-08-10T06:39:49.239Z,4.57
2022-08-10T06:44:58.381Z,4.13
2022-08-10T06:50:09.207Z,4.80
2022-08-10T06:55:16.928Z,4.75
2022-08-10T07:00:33.386Z,4.70
2022-08-10T07:05:41.532Z,4.40
2022-08-10T07:10:48.182Z,4.40
2022-08-10T07:15:58.238Z,4.00
2022-08-10T07:21:05.860Z,3.53
2022-08-10T07:26:10.254Z,3.78
2022-08-10T07:31:55.099Z,3.47
2022-08-10T07:36:43.395Z,3.40
2022-08-10T07:41:49.817Z,3.28
2022-08-10T07:46:57.013Z,2.65
2022-08-10T07:52:00.785Z,2.75
2022-08-10T07:57:07.462Z,2.88
2022-08-10T08:02:20.824Z,3.13
2022-08-10T08:07:24.138Z,2.55
2022-08-10T08:12:28.703Z,2.25
2022-08-10T08:17:36.764Z,2.40
2022-08-10T08:24:05.336Z,2.70
2022-08-10T08:28:06.076Z,2.05
2022-08-10T08:33:19.958Z,2.30
2022-08-10T08:38:37.300Z,1.70
2022-08-10T08:43:54.419Z,1.80
2022-08-10T08:50:05.230Z,2.00
2022-08-10T08:54:53.578Z,1.80
2022-08-10T09:00:04.780Z,2.00
2022-08-10T09:05:58.589Z,2.25
2022-08-10T09:11:01.818Z,2.20
2022-08-10T09:16:23.276Z,1.90
2022-08-10T09:21:43.074Z,2.00
2022-08-10T09:27:07.788Z,1.83
2022-08-10T09:36:13.909Z,2.00
2022-08-10T09:38:01.983Z,2.10
2022-08-10T09:43:25.824Z,2.13
2022-08-10T09:48:38.849Z,1.90
2022-08-10T09:53:50.573Z,1.40
2022-08-10T09:59:59.372Z,1.98
2022-08-10T10:04:46.849Z,2.05
2022-08-10T10:09:58.353Z,1.52
2022-08-10T10:15:28.026Z,1.60
2022-08-10T10:20:39.685Z,1.80
2022-08-10T10:25:57.714Z,1.80
2022-08-10T10:31:16.585Z,1.80
2022-08-10T10:36:22.460Z,1.80
2022-08-10T10:41:57.327Z,1.70
2022-08-10T10:47:30.187Z,1.80
2022-08-10T10:52:43.872Z,1.65
2022-08-10T10:58:01.167Z,1.80
2022-08-10T11:03:24.182Z,1.95
2022-08-10T11:08:34.297Z,2.35
2022-08-10T11:14:25.089Z,1.73
2022-08-10T11:19:18.593Z,1.10
2022-08-10T11:24:47.893Z,1.25
2022-08-10T11:30:00.980Z,1.50
2022-08-10T11:35:12.986Z,1.48
2022-08-10T11:40:21.024Z,1.77
2022-08-10T11:45:29.661Z,1.40
2022-08-10T11:50:37.139Z,1.83
2022-08-10T11:55:44.885Z,2.00
2022-08-10T12:00:50.142Z,1.35
2022-08-10T12:05:56.469Z,1.60
2022-08-10T12:11:00.110Z,1.73
2022-08-10T12:16:08.079Z,1.60
2022-08-10T12:21:21.725Z,1.30
2022-08-10T12:26:32.536Z,1.17
2022-08-10T12:31:43.437Z,1.20
2022-08-10T12:36:53.965Z,1.50
2022-08-10T12:42:00.750Z,1.70
2022-08-10T12:47:20.930Z,1.58
2022-08-10T12:52:29.351Z,1.52
2022-08-10T12:57:36.592Z,1.40
2022-08-10T13:02:48.544Z,1.20
2022-08-10T13:08:26.880Z,1.20
2022-08-10T13:13:35.504Z,1.20
2022-08-10T13:18:44.035Z,1.50
2022-08-10T13:24:03.333Z,1.40
2022-08-10T13:29:15.434Z,1.30
2022-08-10T13:34:42.221Z,1.03
2022-08-10T13:39:58.215Z,1.30
2022-08-10T13:45:09.692Z,1.20
2022-08-10T13:50:20.267Z,0.82
2022-08-10T13:55:26.323Z,1.03
2022-08-10T14:00:50.267Z,1.50
2022-08-10T14:05:57.629Z,1.30
2022-08-10T14:11:10.340Z,1.67
2022-08-10T14:16:17.201Z,1.50
2022-08-10T14:21:22.324Z,1.35
2022-08-10T14:26:28.603Z,1.80
2022-08-10T14:31:34.495Z,1.45
2022-08-10T14:36:44.225Z,1.90
2022-08-10T14:42:01.637Z,1.90
2022-08-10T14:47:52.690Z,1.83
2022-08-10T14:52:44.325Z,1.40
2022-08-10T14:58:16.981Z,2.08
2022-08-10T15:04:00.905Z,1.70
2022-08-10T15:08:46.918Z,2.08
2022-08-10T15:18:58.516Z,2.03
2022-08-10T15:24:09.999Z,1.60
2022-08-10T15:34:48.291Z,1.90
2022-08-10T15:40:25.307Z,1.80
2022-08-10T15:50:40.161Z,2.00
2022-08-10T15:55:51.693Z,1.90
2022-08-10T16:00:59.486Z,2.08
2022-08-10T16:06:03.551Z,2.50
2022-08-10T16:11:11.996Z,2.30
2022-08-10T16:16:17.649Z,2.50
2022-08-10T16:21:24.616Z,3.08
2022-08-10T16:26:32.317Z,5.70
2022-08-10T16:31:37.070Z,14.85
2022-08-10T16:36:44.977Z,16.75
2022-08-10T16:42:05.211Z,30.95
2022-08-10T16:47:10.945Z,38.80
2022-08-10T16:52:15.272Z,26.45
2022-08-10T16:57:21.048Z,11.10
2022-08-10T17:02:26.098Z,8.00
2022-08-10T17:07:31.220Z,6.45
2022-08-10T17:12:39.332Z,5.85
2022-08-10T17:17:46.014Z,5.47
2022-08-10T17:22:54.750Z,6.57
2022-08-10T17:28:04.909Z,5.50
2022-08-10T17:33:30.537Z,5.60
2022-08-10T17:38:37.280Z,4.47
2022-08-10T17:44:02.140Z,4.10
2022-08-10T17:49:08.896Z,3.92
2022-08-10T17:54:24.739Z,3.45
2022-08-10T17:59:31.948Z,3.30
2022-08-10T18:04:41.812Z,3.25
2022-08-10T18:09:50.759Z,3.83
2022-08-10T18:14:58.114Z,3.45
2022-08-10T18:20:04.390Z,5.22
2022-08-10T18:25:16.215Z,3.90
2022-08-10T18:30:21.728Z,3.30
2022-08-10T18:35:34.949Z,3.92
2022-08-10T18:40:43.981Z,4.72
2022-08-10T18:45:48.884Z,3.60
2022-08-10T18:50:53.772Z,3.80
2022-08-10T18:56:10.612Z,3.80
2022-08-10T19:01:28.987Z,12.63
2022-08-10T19:06:57.706Z,11.38
2022-08-10T19:12:30.832Z,5.10
2022-08-10T19:18:03.688Z,4.78
2022-08-10T19:23:33.484Z,5.68
2022-08-10T19:28:47.554Z,5.55
2022-08-10T19:34:11.103Z,10.10
2022-08-10T19:39:26.451Z,6.65
2022-08-10T19:44:43.002Z,9.38
2022-08-10T19:49:55.769Z,10.88
2022-08-10T19:55:15.209Z,12.98
2022-08-10T20:00:24.262Z,14.07
2022-08-10T20:05:36.808Z,13.82
2022-08-10T20:10:48.000Z,13.77
2022-08-10T20:15:58.275Z,5.38
2022-08-10T20:21:12.443Z,5.75
2022-08-10T20:26:20.895Z,4.57
2022-08-10T20:31:30.469Z,4.95
2022-08-10T20:36:39.721Z,5.32
2022-08-10T20:41:55.718Z,5.90
2022-08-10T20:47:05.740Z,5.30
2022-08-10T20:52:11.396Z,5.95
2022-08-10T20:57:55.281Z,6.00
2022-08-10T21:03:31.271Z,5.07
2022-08-10T21:08:50.435Z,6.53
2022-08-10T21:14:19.490Z,5.88
2022-08-10T21:20:01.075Z,5.57
2022-08-10T21:25:15.643Z,5.70
2022-08-10T21:30:22.364Z,5.75
2022-08-10T21:41:57.268Z,5.60
2022-08-10T21:47:38.031Z,6.07
2022-08-10T21:53:17.826Z,4.85
2022-08-10T21:58:48.785Z,5.65
2022-08-10T22:04:10.501Z,5.30
2022-08-10T22:15:09.499Z,6.22
2022-08-10T22:20:41.528Z,6.30
2022-08-10T22:26:12.962Z,6.07
2022-08-10T22:31:28.224Z,5.65
2022-08-10T22:31:52.891Z,6.47
2022-08-10T22:37:27.471Z,4.93
2022-08-10T22:42:59.170Z,6.15
2022-08-10T22:48:33.283Z,5.30
2022-08-10T22:54:06.324Z,5.97
2022-08-10T22:59:10.030Z,6.70
2022-08-10T23:04:21.043Z,6.53
2022-08-10T23:09:27.160Z,6.77
2022-08-10T23:14:36.681Z,5.30
2022-08-10T23:19:44.969Z,6.70
2022-08-10T23:24:53.274Z,5.93
2022-08-10T23:30:03.636Z,6.47
2022-08-10T23:36:30.966Z,5.97
2022-08-10T23:40:46.269Z,5.80
2022-08-10T23:45:54.531Z,5.72
2022-08-10T23:51:02.710Z,5.35
2022-08-10T23:56:10.938Z,5.38
